sensor_id;sensor_type;location;lat;lon;timestamp;temperature;humidity
10538;DHT22;5317;49.048;8.468;2023-04-01T00:01:27;14.10;70.30
10538;DHT22;5317;49.048;8.468;2023-04-01T00:03:54;14.10;71.20
10538;DHT22;5317;49.048;8.468;2023-04-01T00:06:23;14.10;70.30
10538;DHT22;5317;49.048;8.468;2023-04-01T00:08:50;14.10;70.30
10538;DHT22;5317;49.048;8.468;2023-04-01T00:11:18;14.10;70.60
10538;DHT22;5317;49.048;8.468;2023-04-01T00:13:45;14.10;70.50
10538;DHT22;5317;49.048;8.468;2023-04-01T00:16:12;14.20;70.40
10538;DHT22;5317;49.048;8.468;2023-04-01T00:18:39;14.10;70.30
10538;DHT22;5317;49.048;8.468;2023-04-01T00:21:06;14.00;70.50
10538;DHT22;5317;49.048;8.468;2023-04-01T00:23:34;14.10;70.90
10538;DHT22;5317;49.048;8.468;2023-04-01T00:26:02;14.10;70.80
10538;DHT22;5317;49.048;8.468;2023-04-01T00:28:30;14.10;70.60
10538;DHT22;5317;49.048;8.468;2023-04-01T00:30:57;14.10;70.90
10538;DHT22;5317;49.048;8.468;2023-04-01T00:33:23;14.10;71.00
10538;DHT22;5317;49.048;8.468;2023-04-01T00:35:50;14.10;70.80
10538;DHT22;5317;49.048;8.468;2023-04-01T00:38:17;14.10;70.70
10538;DHT22;5317;49.048;8.468;2023-04-01T00:40:46;14.20;70.80
10538;DHT22;5317;49.048;8.468;2023-04-01T00:43:15;14.10;70.90
10538;DHT22;5317;49.048;8.468;2023-04-01T00:45:45;14.00;70.90
10538;DHT22;5317;49.048;8.468;2023-04-01T00:48:16;14.10;71.10
10538;DHT22;5317;49.048;8.468;2023-04-01T00:50:47;14.10;71.40
10538;DHT22;5317;49.048;8.468;2023-04-01T00:53:16;14.00;71.50
10538;DHT22;5317;49.048;8.468;2023-04-01T00:55:48;14.00;71.50
10538;DHT22;5317;49.048;8.468;2023-04-01T00:58:18;13.90;71.60
10538;DHT22;5317;49.048;8.468;2023-04-01T01:00:48;14.00;71.50
10538;DHT22;5317;49.048;8.468;2023-04-01T01:03:17;14.00;71.60
10538;DHT22;5317;49.048;8.468;2023-04-01T01:05:58;14.00;71.40
10538;DHT22;5317;49.048;8.468;2023-04-01T01:08:31;14.10;71.60
10538;DHT22;5317;49.048;8.468;2023-04-01T01:11:05;14.20;71.20
10538;DHT22;5317;49.048;8.468;2023-04-01T01:13:38;14.20;70.90
10538;DHT22;5317;49.048;8.468;2023-04-01T01:16:14;14.20;71.00
10538;DHT22;5317;49.048;8.468;2023-04-01T01:18:49;14.20;71.00
10538;DHT22;5317;49.048;8.468;2023-04-01T01:21:51;14.20;70.90
10538;DHT22;5317;49.048;8.468;2023-04-01T01:24:43;14.20;70.70
10538;DHT22;5317;49.048;8.468;2023-04-01T01:27:20;14.20;70.80
10538;DHT22;5317;49.048;8.468;2023-04-01T01:30:13;14.10;71.10
10538;DHT22;5317;49.048;8.468;2023-04-01T01:35:40;14.10;71.40
10538;DHT22;5317;49.048;8.468;2023-04-01T01:38:11;14.00;71.70
10538;DHT22;5317;49.048;8.468;2023-04-01T01:40:43;14.00;72.80
10538;DHT22;5317;49.048;8.468;2023-04-01T01:43:12;14.00;72.60
10538;DHT22;5317;49.048;8.468;2023-04-01T01:45:44;14.00;72.50
10538;DHT22;5317;49.048;8.468;2023-04-01T01:48:13;14.00;72.30
10538;DHT22;5317;49.048;8.468;2023-04-01T01:50:43;14.10;72.90
10538;DHT22;5317;49.048;8.468;2023-04-01T01:53:12;14.00;73.40
10538;DHT22;5317;49.048;8.468;2023-04-01T01:55:41;14.00;73.80
10538;DHT22;5317;49.048;8.468;2023-04-01T01:58:13;13.90;73.60
10538;DHT22;5317;49.048;8.468;2023-04-01T02:00:43;13.90;74.00
10538;DHT22;5317;49.048;8.468;2023-04-01T02:03:12;13.90;74.00
10538;DHT22;5317;49.048;8.468;2023-04-01T02:05:41;13.80;73.50
10538;DHT22;5317;49.048;8.468;2023-04-01T02:08:12;13.80;73.40
10538;DHT22;5317;49.048;8.468;2023-04-01T02:10:43;13.80;73.20
10538;DHT22;5317;49.048;8.468;2023-04-01T02:13:17;13.80;73.00
10538;DHT22;5317;49.048;8.468;2023-04-01T02:15:47;13.80;72.30
10538;DHT22;5317;49.048;8.468;2023-04-01T02:18:17;13.70;72.00
10538;DHT22;5317;49.048;8.468;2023-04-01T02:20:46;13.70;71.80
10538;DHT22;5317;49.048;8.468;2023-04-01T02:23:14;13.70;71.40
10538;DHT22;5317;49.048;8.468;2023-04-01T02:25:42;13.70;71.20
10538;DHT22;5317;49.048;8.468;2023-04-01T02:28:10;13.70;70.70
10538;DHT22;5317;49.048;8.468;2023-04-01T02:30:42;13.70;70.60
10538;DHT22;5317;49.048;8.468;2023-04-01T02:33:10;13.70;70.50
10538;DHT22;5317;49.048;8.468;2023-04-01T02:35:37;13.70;70.30
10538;DHT22;5317;49.048;8.468;2023-04-01T02:38:05;13.70;69.80
10538;DHT22;5317;49.048;8.468;2023-04-01T02:40:42;13.70;69.50
10538;DHT22;5317;49.048;8.468;2023-04-01T02:43:10;13.70;69.50
10538;DHT22;5317;49.048;8.468;2023-04-01T02:45:37;13.70;69.70
10538;DHT22;5317;49.048;8.468;2023-04-01T02:48:04;13.80;69.50
10538;DHT22;5317;49.048;8.468;2023-04-01T02:50:31;13.80;69.50
10538;DHT22;5317;49.048;8.468;2023-04-01T02:52:58;13.80;69.00
10538;DHT22;5317;49.048;8.468;2023-04-01T02:55:26;13.80;68.90
10538;DHT22;5317;49.048;8.468;2023-04-01T02:57:53;13.70;68.90
10538;DHT22;5317;49.048;8.468;2023-04-01T03:00:20;13.80;68.90
10538;DHT22;5317;49.048;8.468;2023-04-01T03:02:47;13.70;68.80
10538;DHT22;5317;49.048;8.468;2023-04-01T03:05:14;13.70;68.60
10538;DHT22;5317;49.048;8.468;2023-04-01T03:07:41;13.70;69.30
10538;DHT22;5317;49.048;8.468;2023-04-01T03:10:08;13.70;69.00
10538;DHT22;5317;49.048;8.468;2023-04-01T03:12:37;13.70;68.90
10538;DHT22;5317;49.048;8.468;2023-04-01T03:15:05;13.70;68.90
10538;DHT22;5317;49.048;8.468;2023-04-01T03:17:32;13.70;69.00
10538;DHT22;5317;49.048;8.468;2023-04-01T03:19:59;13.70;69.00
10538;DHT22;5317;49.048;8.468;2023-04-01T03:22:26;13.70;69.10
10538;DHT22;5317;49.048;8.468;2023-04-01T03:24:52;13.70;69.10
10538;DHT22;5317;49.048;8.468;2023-04-01T03:27:20;13.70;68.60
10538;DHT22;5317;49.048;8.468;2023-04-01T03:29:48;13.70;68.60
10538;DHT22;5317;49.048;8.468;2023-04-01T03:32:15;13.70;68.60
10538;DHT22;5317;49.048;8.468;2023-04-01T03:34:42;13.70;68.80
10538;DHT22;5317;49.048;8.468;2023-04-01T03:37:08;13.70;68.60
10538;DHT22;5317;49.048;8.468;2023-04-01T03:39:35;13.70;68.60
10538;DHT22;5317;49.048;8.468;2023-04-01T03:42:02;13.70;68.50
10538;DHT22;5317;49.048;8.468;2023-04-01T03:44:31;13.70;68.40
10538;DHT22;5317;49.048;8.468;2023-04-01T03:46:59;13.70;68.40
10538;DHT22;5317;49.048;8.468;2023-04-01T03:49:26;13.70;68.00
10538;DHT22;5317;49.048;8.468;2023-04-01T03:51:53;13.80;68.10
10538;DHT22;5317;49.048;8.468;2023-04-01T03:54:20;13.80;68.00
10538;DHT22;5317;49.048;8.468;2023-04-01T03:56:47;13.70;67.70
10538;DHT22;5317;49.048;8.468;2023-04-01T03:59:15;13.70;67.80
10538;DHT22;5317;49.048;8.468;2023-04-01T04:01:42;13.80;68.00
10538;DHT22;5317;49.048;8.468;2023-04-01T04:04:12;13.80;67.80
10538;DHT22;5317;49.048;8.468;2023-04-01T04:06:40;13.80;67.90
10538;DHT22;5317;49.048;8.468;2023-04-01T04:09:07;13.80;67.80
10538;DHT22;5317;49.048;8.468;2023-04-01T04:11:33;13.90;67.80
10538;DHT22;5317;49.048;8.468;2023-04-01T04:14:00;13.80;67.60
10538;DHT22;5317;49.048;8.468;2023-04-01T04:16:27;13.80;67.60
10538;DHT22;5317;49.048;8.468;2023-04-01T04:18:54;13.80;67.60
10538;DHT22;5317;49.048;8.468;2023-04-01T04:21:22;13.80;67.80
10538;DHT22;5317;49.048;8.468;2023-04-01T04:23:50;13.90;67.80
10538;DHT22;5317;49.048;8.468;2023-04-01T04:26:17;13.80;67.80
10538;DHT22;5317;49.048;8.468;2023-04-01T04:28:44;13.80;68.20
10538;DHT22;5317;49.048;8.468;2023-04-01T04:31:11;13.70;68.30
10538;DHT22;5317;49.048;8.468;2023-04-01T04:33:38;13.70;68.20
10538;DHT22;5317;49.048;8.468;2023-04-01T04:36:05;13.70;69.00
10538;DHT22;5317;49.048;8.468;2023-04-01T04:38:34;13.70;68.50
10538;DHT22;5317;49.048;8.468;2023-04-01T04:41:01;13.80;68.20
10538;DHT22;5317;49.048;8.468;2023-04-01T04:43:27;13.90;68.20
10538;DHT22;5317;49.048;8.468;2023-04-01T04:45:54;13.90;68.00
10538;DHT22;5317;49.048;8.468;2023-04-01T04:48:21;13.90;67.70
10538;DHT22;5317;49.048;8.468;2023-04-01T04:50:49;13.80;67.80
10538;DHT22;5317;49.048;8.468;2023-04-01T04:53:17;13.80;68.10
10538;DHT22;5317;49.048;8.468;2023-04-01T04:55:49;13.90;68.30
10538;DHT22;5317;49.048;8.468;2023-04-01T04:58:17;13.90;67.90
10538;DHT22;5317;49.048;8.468;2023-04-01T05:00:44;13.90;67.70
10538;DHT22;5317;49.048;8.468;2023-04-01T05:03:12;13.90;67.50
10538;DHT22;5317;49.048;8.468;2023-04-01T05:05:39;13.90;67.50
10538;DHT22;5317;49.048;8.468;2023-04-01T05:08:06;14.00;67.50
10538;DHT22;5317;49.048;8.468;2023-04-01T05:10:33;14.00;67.40
10538;DHT22;5317;49.048;8.468;2023-04-01T05:13:01;14.00;67.20
10538;DHT22;5317;49.048;8.468;2023-04-01T05:15:28;14.00;67.50
10538;DHT22;5317;49.048;8.468;2023-04-01T05:17:55;14.00;67.60
10538;DHT22;5317;49.048;8.468;2023-04-01T05:20:22;14.00;67.70
10538;DHT22;5317;49.048;8.468;2023-04-01T05:22:48;13.90;67.30
10538;DHT22;5317;49.048;8.468;2023-04-01T05:25:15;14.00;67.80
10538;DHT22;5317;49.048;8.468;2023-04-01T05:27:42;14.00;67.80
10538;DHT22;5317;49.048;8.468;2023-04-01T05:30:11;14.00;67.80
10538;DHT22;5317;49.048;8.468;2023-04-01T05:32:38;13.80;67.50
10538;DHT22;5317;49.048;8.468;2023-04-01T05:35:06;13.90;67.90
10538;DHT22;5317;49.048;8.468;2023-04-01T05:37:33;13.90;68.80
10538;DHT22;5317;49.048;8.468;2023-04-01T05:40:00;13.90;68.00
10538;DHT22;5317;49.048;8.468;2023-04-01T05:42:27;13.90;67.90
10538;DHT22;5317;49.048;8.468;2023-04-01T05:44:54;14.00;67.90
10538;DHT22;5317;49.048;8.468;2023-04-01T05:47:23;14.00;68.20
10538;DHT22;5317;49.048;8.468;2023-04-01T05:49:50;13.90;68.20
10538;DHT22;5317;49.048;8.468;2023-04-01T05:52:16;13.80;68.60
10538;DHT22;5317;49.048;8.468;2023-04-01T05:54:46;13.80;69.20
10538;DHT22;5317;49.048;8.468;2023-04-01T05:57:13;13.70;69.50
10538;DHT22;5317;49.048;8.468;2023-04-01T05:59:40;13.70;69.60
10538;DHT22;5317;49.048;8.468;2023-04-01T06:02:08;13.60;70.10
10538;DHT22;5317;49.048;8.468;2023-04-01T06:04:38;13.60;70.50
10538;DHT22;5317;49.048;8.468;2023-04-01T06:07:11;13.60;70.90
10538;DHT22;5317;49.048;8.468;2023-04-01T06:09:38;13.60;71.10
10538;DHT22;5317;49.048;8.468;2023-04-01T06:12:38;13.60;71.20
10538;DHT22;5317;49.048;8.468;2023-04-01T06:15:23;13.50;71.50
10538;DHT22;5317;49.048;8.468;2023-04-01T06:20:53;13.50;72.50
10538;DHT22;5317;49.048;8.468;2023-04-01T06:23:33;13.50;72.50
10538;DHT22;5317;49.048;8.468;2023-04-01T06:26:15;13.50;72.60
10538;DHT22;5317;49.048;8.468;2023-04-01T06:29:18;13.40;72.80
10538;DHT22;5317;49.048;8.468;2023-04-01T06:32:10;13.40;73.20
10538;DHT22;5317;49.048;8.468;2023-04-01T06:34:58;13.40;73.30
10538;DHT22;5317;49.048;8.468;2023-04-01T06:37:43;13.30;73.60
10538;DHT22;5317;49.048;8.468;2023-04-01T06:40:41;13.40;73.80
10538;DHT22;5317;49.048;8.468;2023-04-01T06:43:16;13.40;74.00
10538;DHT22;5317;49.048;8.468;2023-04-01T06:45:52;13.40;73.80
10538;DHT22;5317;49.048;8.468;2023-04-01T06:48:33;13.40;73.60
10538;DHT22;5317;49.048;8.468;2023-04-01T06:51:12;13.40;74.30
10538;DHT22;5317;49.048;8.468;2023-04-01T06:53:49;13.50;74.50
10538;DHT22;5317;49.048;8.468;2023-04-01T06:56:20;13.50;74.50
10538;DHT22;5317;49.048;8.468;2023-04-01T06:58:51;13.50;74.70
10538;DHT22;5317;49.048;8.468;2023-04-01T07:01:24;13.50;75.10
10538;DHT22;5317;49.048;8.468;2023-04-01T07:03:56;13.50;75.30
10538;DHT22;5317;49.048;8.468;2023-04-01T07:06:28;13.40;74.90
10538;DHT22;5317;49.048;8.468;2023-04-01T07:09:02;13.50;75.70
10538;DHT22;5317;49.048;8.468;2023-04-01T07:11:33;13.50;75.80
10538;DHT22;5317;49.048;8.468;2023-04-01T07:14:03;13.50;75.40
10538;DHT22;5317;49.048;8.468;2023-04-01T07:16:33;13.50;76.10
10538;DHT22;5317;49.048;8.468;2023-04-01T07:19:04;13.50;76.10
10538;DHT22;5317;49.048;8.468;2023-04-01T07:21:36;13.50;76.30
10538;DHT22;5317;49.048;8.468;2023-04-01T07:24:13;13.40;76.40
10538;DHT22;5317;49.048;8.468;2023-04-01T07:26:42;13.40;77.10
10538;DHT22;5317;49.048;8.468;2023-04-01T07:29:12;13.40;77.20
10538;DHT22;5317;49.048;8.468;2023-04-01T07:32:06;13.40;77.30
10538;DHT22;5317;49.048;8.468;2023-04-01T07:34:41;13.40;77.60
10538;DHT22;5317;49.048;8.468;2023-04-01T07:37:13;13.40;78.20
10538;DHT22;5317;49.048;8.468;2023-04-01T07:39:49;13.40;78.60
10538;DHT22;5317;49.048;8.468;2023-04-01T07:42:26;13.40;79.00
10538;DHT22;5317;49.048;8.468;2023-04-01T07:45:03;13.40;79.30
10538;DHT22;5317;49.048;8.468;2023-04-01T07:47:47;13.40;79.70
10538;DHT22;5317;49.048;8.468;2023-04-01T07:50:24;13.30;80.30
10538;DHT22;5317;49.048;8.468;2023-04-01T07:53:02;13.20;80.40
10538;DHT22;5317;49.048;8.468;2023-04-01T07:55:40;13.30;80.70
10538;DHT22;5317;49.048;8.468;2023-04-01T07:58:14;13.20;80.30
10538;DHT22;5317;49.048;8.468;2023-04-01T08:00:48;13.20;80.30
10538;DHT22;5317;49.048;8.468;2023-04-01T08:03:31;13.20;80.70
10538;DHT22;5317;49.048;8.468;2023-04-01T08:06:04;13.20;80.70
10538;DHT22;5317;49.048;8.468;2023-04-01T08:08:41;13.20;81.00
10538;DHT22;5317;49.048;8.468;2023-04-01T08:11:21;13.20;80.90
10538;DHT22;5317;49.048;8.468;2023-04-01T08:13:56;13.20;80.80
10538;DHT22;5317;49.048;8.468;2023-04-01T08:16:32;13.30;81.00
10538;DHT22;5317;49.048;8.468;2023-04-01T08:19:09;13.20;80.70
10538;DHT22;5317;49.048;8.468;2023-04-01T08:21:43;13.20;81.10
10538;DHT22;5317;49.048;8.468;2023-04-01T08:24:19;13.20;80.90
10538;DHT22;5317;49.048;8.468;2023-04-01T08:26:49;13.30;81.10
10538;DHT22;5317;49.048;8.468;2023-04-01T08:29:21;13.30;81.00
10538;DHT22;5317;49.048;8.468;2023-04-01T08:31:53;13.40;81.40
10538;DHT22;5317;49.048;8.468;2023-04-01T08:34:25;13.50;81.50
10538;DHT22;5317;49.048;8.468;2023-04-01T08:36:58;13.40;80.40
10538;DHT22;5317;49.048;8.468;2023-04-01T08:39:29;13.50;80.20
10538;DHT22;5317;49.048;8.468;2023-04-01T08:45:20;13.30;81.30
10538;DHT22;5317;49.048;8.468;2023-04-01T08:47:56;13.50;81.10
10538;DHT22;5317;49.048;8.468;2023-04-01T08:54:04;13.60;80.90
10538;DHT22;5317;49.048;8.468;2023-04-01T08:56:37;13.60;80.90
10538;DHT22;5317;49.048;8.468;2023-04-01T08:59:22;13.80;81.00
10538;DHT22;5317;49.048;8.468;2023-04-01T09:05:12;13.80;80.30
10538;DHT22;5317;49.048;8.468;2023-04-01T09:07:49;13.80;80.20
10538;DHT22;5317;49.048;8.468;2023-04-01T09:10:39;13.70;80.70
10538;DHT22;5317;49.048;8.468;2023-04-01T09:13:29;13.70;80.30
10538;DHT22;5317;49.048;8.468;2023-04-01T09:16:28;13.70;80.50
10538;DHT22;5317;49.048;8.468;2023-04-01T09:19:20;13.70;80.70
10538;DHT22;5317;49.048;8.468;2023-04-01T09:22:10;13.60;80.60
10538;DHT22;5317;49.048;8.468;2023-04-01T09:24:46;13.60;81.30
10538;DHT22;5317;49.048;8.468;2023-04-01T09:27:26;13.60;80.50
10538;DHT22;5317;49.048;8.468;2023-04-01T09:30:17;13.60;80.70
10538;DHT22;5317;49.048;8.468;2023-04-01T09:36:00;13.60;81.30
10538;DHT22;5317;49.048;8.468;2023-04-01T09:38:29;13.60;81.10
10538;DHT22;5317;49.048;8.468;2023-04-01T09:40:57;13.60;81.30
10538;DHT22;5317;49.048;8.468;2023-04-01T09:43:30;13.50;81.60
10538;DHT22;5317;49.048;8.468;2023-04-01T09:46:11;13.50;81.60
10538;DHT22;5317;49.048;8.468;2023-04-01T09:51:47;13.60;82.60
10538;DHT22;5317;49.048;8.468;2023-04-01T09:54:28;13.80;82.00
10538;DHT22;5317;49.048;8.468;2023-04-01T10:00:23;13.80;81.60
10538;DHT22;5317;49.048;8.468;2023-04-01T10:03:29;13.70;81.50
10538;DHT22;5317;49.048;8.468;2023-04-01T10:06:27;13.60;81.90
10538;DHT22;5317;49.048;8.468;2023-04-01T10:15:54;13.60;82.10
10538;DHT22;5317;49.048;8.468;2023-04-01T10:18:46;13.60;82.80
10538;DHT22;5317;49.048;8.468;2023-04-01T10:24:32;13.60;83.00
10538;DHT22;5317;49.048;8.468;2023-04-01T10:27:21;13.50;82.50
10538;DHT22;5317;49.048;8.468;2023-04-01T10:30:13;13.50;83.50
10538;DHT22;5317;49.048;8.468;2023-04-01T10:33:10;13.60;83.90
10538;DHT22;5317;49.048;8.468;2023-04-01T10:36:12;13.70;83.40
10538;DHT22;5317;49.048;8.468;2023-04-01T10:45:24;13.90;83.40
10538;DHT22;5317;49.048;8.468;2023-04-01T10:51:20;13.90;83.30
10538;DHT22;5317;49.048;8.468;2023-04-01T10:54:17;13.90;83.00
10538;DHT22;5317;49.048;8.468;2023-04-01T10:56:56;13.90;83.40
10538;DHT22;5317;49.048;8.468;2023-04-01T10:59:51;13.80;82.60
10538;DHT22;5317;49.048;8.468;2023-04-01T11:12:34;13.80;82.70
10538;DHT22;5317;49.048;8.468;2023-04-01T11:15:26;13.80;82.60
10538;DHT22;5317;49.048;8.468;2023-04-01T11:21:42;13.90;82.70
10538;DHT22;5317;49.048;8.468;2023-04-01T11:24:41;14.00;82.90
10538;DHT22;5317;49.048;8.468;2023-04-01T11:27:21;14.00;83.40
10538;DHT22;5317;49.048;8.468;2023-04-01T11:30:27;14.10;82.90
10538;DHT22;5317;49.048;8.468;2023-04-01T11:33:01;14.00;83.00
10538;DHT22;5317;49.048;8.468;2023-04-01T11:35:50;14.00;82.90
10538;DHT22;5317;49.048;8.468;2023-04-01T11:38:32;13.90;83.10
10538;DHT22;5317;49.048;8.468;2023-04-01T11:41:15;13.90;83.30
10538;DHT22;5317;49.048;8.468;2023-04-01T11:43:54;13.90;83.30
10538;DHT22;5317;49.048;8.468;2023-04-01T11:46:36;13.90;82.90
10538;DHT22;5317;49.048;8.468;2023-04-01T11:49:25;13.90;83.20
10538;DHT22;5317;49.048;8.468;2023-04-01T11:52:18;13.80;84.10
10538;DHT22;5317;49.048;8.468;2023-04-01T11:55:15;13.90;84.00
10538;DHT22;5317;49.048;8.468;2023-04-01T11:58:10;13.90;83.90
10538;DHT22;5317;49.048;8.468;2023-04-01T12:00:55;13.90;84.20
10538;DHT22;5317;49.048;8.468;2023-04-01T12:03:39;14.00;84.20
10538;DHT22;5317;49.048;8.468;2023-04-01T12:06:13;13.90;84.10
10538;DHT22;5317;49.048;8.468;2023-04-01T12:08:51;14.00;84.30
10538;DHT22;5317;49.048;8.468;2023-04-01T12:11:28;14.00;84.20
10538;DHT22;5317;49.048;8.468;2023-04-01T12:14:02;13.90;83.30
10538;DHT22;5317;49.048;8.468;2023-04-01T12:16:54;13.90;84.20
10538;DHT22;5317;49.048;8.468;2023-04-01T12:19:29;14.00;84.50
10538;DHT22;5317;49.048;8.468;2023-04-01T12:22:12;13.90;83.80
10538;DHT22;5317;49.048;8.468;2023-04-01T12:24:49;13.80;84.40
10538;DHT22;5317;49.048;8.468;2023-04-01T12:27:39;13.80;84.10
10538;DHT22;5317;49.048;8.468;2023-04-01T12:33:41;13.70;85.20
10538;DHT22;5317;49.048;8.468;2023-04-01T12:36:32;13.80;85.20
10538;DHT22;5317;49.048;8.468;2023-04-01T12:39:17;13.80;85.30
10538;DHT22;5317;49.048;8.468;2023-04-01T12:41:52;13.70;85.00
10538;DHT22;5317;49.048;8.468;2023-04-01T12:44:53;13.80;85.20
10538;DHT22;5317;49.048;8.468;2023-04-01T12:50:50;13.80;84.80
10538;DHT22;5317;49.048;8.468;2023-04-01T12:53:35;13.80;85.70
10538;DHT22;5317;49.048;8.468;2023-04-01T12:56:07;13.80;85.20
10538;DHT22;5317;49.048;8.468;2023-04-01T12:58:59;13.80;85.70
10538;DHT22;5317;49.048;8.468;2023-04-01T13:01:59;13.80;85.40
10538;DHT22;5317;49.048;8.468;2023-04-01T13:07:45;14.00;85.10
10538;DHT22;5317;49.048;8.468;2023-04-01T13:10:25;14.10;85.10
10538;DHT22;5317;49.048;8.468;2023-04-01T13:13:12;14.00;84.30
10538;DHT22;5317;49.048;8.468;2023-04-01T13:15:47;13.90;84.50
10538;DHT22;5317;49.048;8.468;2023-04-01T13:18:24;13.90;84.80
10538;DHT22;5317;49.048;8.468;2023-04-01T13:20:59;13.80;84.20
10538;DHT22;5317;49.048;8.468;2023-04-01T13:23:43;13.90;84.60
10538;DHT22;5317;49.048;8.468;2023-04-01T13:26:18;13.90;83.80
10538;DHT22;5317;49.048;8.468;2023-04-01T13:28:51;13.90;83.70
10538;DHT22;5317;49.048;8.468;2023-04-01T13:31:33;14.00;84.00
10538;DHT22;5317;49.048;8.468;2023-04-01T13:34:14;14.00;83.70
10538;DHT22;5317;49.048;8.468;2023-04-01T13:36:53;14.00;83.50
10538;DHT22;5317;49.048;8.468;2023-04-01T13:39:35;14.00;83.70
10538;DHT22;5317;49.048;8.468;2023-04-01T13:42:15;14.00;83.40
10538;DHT22;5317;49.048;8.468;2023-04-01T13:44:46;13.90;82.80
10538;DHT22;5317;49.048;8.468;2023-04-01T13:50:42;13.70;82.20
10538;DHT22;5317;49.048;8.468;2023-04-01T13:56:27;13.90;83.30
10538;DHT22;5317;49.048;8.468;2023-04-01T13:59:04;13.80;82.80
10538;DHT22;5317;49.048;8.468;2023-04-01T14:01:39;13.70;83.50
10538;DHT22;5317;49.048;8.468;2023-04-01T14:04:33;13.80;83.20
10538;DHT22;5317;49.048;8.468;2023-04-01T14:07:15;13.80;84.10
10538;DHT22;5317;49.048;8.468;2023-04-01T14:09:59;13.80;83.60
10538;DHT22;5317;49.048;8.468;2023-04-01T14:12:36;13.90;84.20
10538;DHT22;5317;49.048;8.468;2023-04-01T14:15:23;13.90;84.10
10538;DHT22;5317;49.048;8.468;2023-04-01T14:18:12;13.90;83.00
10538;DHT22;5317;49.048;8.468;2023-04-01T14:20:48;13.80;83.00
10538;DHT22;5317;49.048;8.468;2023-04-01T14:23:37;13.80;83.20
10538;DHT22;5317;49.048;8.468;2023-04-01T14:26:35;13.80;83.60
10538;DHT22;5317;49.048;8.468;2023-04-01T14:29:18;13.90;83.00
10538;DHT22;5317;49.048;8.468;2023-04-01T14:31:56;13.90;83.20
10538;DHT22;5317;49.048;8.468;2023-04-01T14:34:36;13.80;83.30
10538;DHT22;5317;49.048;8.468;2023-04-01T14:37:22;13.70;84.20
10538;DHT22;5317;49.048;8.468;2023-04-01T14:40:14;13.80;85.20
10538;DHT22;5317;49.048;8.468;2023-04-01T14:42:55;13.80;84.60
10538;DHT22;5317;49.048;8.468;2023-04-01T14:48:25;13.90;84.60
10538;DHT22;5317;49.048;8.468;2023-04-01T14:50:57;14.00;84.20
10538;DHT22;5317;49.048;8.468;2023-04-01T14:53:33;13.90;85.00
10538;DHT22;5317;49.048;8.468;2023-04-01T14:56:04;13.90;84.50
10538;DHT22;5317;49.048;8.468;2023-04-01T14:58:42;13.90;84.50
10538;DHT22;5317;49.048;8.468;2023-04-01T15:01:32;13.90;84.20
10538;DHT22;5317;49.048;8.468;2023-04-01T15:04:24;13.90;84.30
10538;DHT22;5317;49.048;8.468;2023-04-01T15:07:05;13.90;85.20
10538;DHT22;5317;49.048;8.468;2023-04-01T15:09:39;13.90;84.70
10538;DHT22;5317;49.048;8.468;2023-04-01T15:12:19;13.90;85.00
10538;DHT22;5317;49.048;8.468;2023-04-01T15:14:57;13.90;84.70
10538;DHT22;5317;49.048;8.468;2023-04-01T15:17:40;13.90;84.80
10538;DHT22;5317;49.048;8.468;2023-04-01T15:20:25;13.90;84.80
10538;DHT22;5317;49.048;8.468;2023-04-01T15:23:12;13.90;85.10
10538;DHT22;5317;49.048;8.468;2023-04-01T15:25:58;13.90;85.50
10538;DHT22;5317;49.048;8.468;2023-04-01T15:28:34;13.90;84.90
10538;DHT22;5317;49.048;8.468;2023-04-01T15:31:10;13.90;84.50
10538;DHT22;5317;49.048;8.468;2023-04-01T15:33:50;14.10;85.00
10538;DHT22;5317;49.048;8.468;2023-04-01T15:36:29;14.20;84.30
10538;DHT22;5317;49.048;8.468;2023-04-01T15:39:03;14.30;84.40
10538;DHT22;5317;49.048;8.468;2023-04-01T15:41:43;14.30;84.20
10538;DHT22;5317;49.048;8.468;2023-04-01T15:44:42;14.30;83.70
10538;DHT22;5317;49.048;8.468;2023-04-01T15:47:30;14.20;83.70
10538;DHT22;5317;49.048;8.468;2023-04-01T15:50:17;14.20;83.80
10538;DHT22;5317;49.048;8.468;2023-04-01T15:52:51;14.30;83.70
10538;DHT22;5317;49.048;8.468;2023-04-01T15:55:21;14.30;83.40
10538;DHT22;5317;49.048;8.468;2023-04-01T15:58:02;14.30;83.20
10538;DHT22;5317;49.048;8.468;2023-04-01T16:00:32;14.20;83.10
10538;DHT22;5317;49.048;8.468;2023-04-01T16:03:19;14.20;83.50
10538;DHT22;5317;49.048;8.468;2023-04-01T16:06:14;14.20;83.20
10538;DHT22;5317;49.048;8.468;2023-04-01T16:09:17;14.20;83.00
10538;DHT22;5317;49.048;8.468;2023-04-01T16:11:53;14.10;83.00
10538;DHT22;5317;49.048;8.468;2023-04-01T16:14:38;14.10;83.40
10538;DHT22;5317;49.048;8.468;2023-04-01T16:17:22;14.20;83.60
10538;DHT22;5317;49.048;8.468;2023-04-01T16:19:56;14.30;82.70
10538;DHT22;5317;49.048;8.468;2023-04-01T16:22:31;14.30;82.00
10538;DHT22;5317;49.048;8.468;2023-04-01T16:25:14;14.20;82.40
10538;DHT22;5317;49.048;8.468;2023-04-01T16:27:47;14.20;82.50
10538;DHT22;5317;49.048;8.468;2023-04-01T16:30:32;14.20;82.40
10538;DHT22;5317;49.048;8.468;2023-04-01T16:33:03;14.20;82.20
10538;DHT22;5317;49.048;8.468;2023-04-01T16:35:40;14.20;82.00
10538;DHT22;5317;49.048;8.468;2023-04-01T16:38:15;14.30;81.70
10538;DHT22;5317;49.048;8.468;2023-04-01T16:40:49;14.20;81.30
10538;DHT22;5317;49.048;8.468;2023-04-01T16:43:25;14.20;81.50
10538;DHT22;5317;49.048;8.468;2023-04-01T16:49:04;14.10;81.30
10538;DHT22;5317;49.048;8.468;2023-04-01T16:51:40;14.10;81.50
10538;DHT22;5317;49.048;8.468;2023-04-01T16:54:16;14.10;81.50
10538;DHT22;5317;49.048;8.468;2023-04-01T16:56:47;14.20;81.70
10538;DHT22;5317;49.048;8.468;2023-04-01T16:59:21;14.20;81.60
10538;DHT22;5317;49.048;8.468;2023-04-01T17:01:53;14.20;81.10
10538;DHT22;5317;49.048;8.468;2023-04-01T17:04:31;14.10;81.50
10538;DHT22;5317;49.048;8.468;2023-04-01T17:07:10;14.10;81.90
10538;DHT22;5317;49.048;8.468;2023-04-01T17:09:57;14.20;81.80
10538;DHT22;5317;49.048;8.468;2023-04-01T17:12:32;14.20;81.50
10538;DHT22;5317;49.048;8.468;2023-04-01T17:15:07;14.20;81.30
10538;DHT22;5317;49.048;8.468;2023-04-01T17:17:45;14.20;81.20
10538;DHT22;5317;49.048;8.468;2023-04-01T17:20:19;14.10;80.80
10538;DHT22;5317;49.048;8.468;2023-04-01T17:22:54;14.00;80.50
10538;DHT22;5317;49.048;8.468;2023-04-01T17:25:49;14.00;80.10
10538;DHT22;5317;49.048;8.468;2023-04-01T17:28:27;14.00;80.30
10538;DHT22;5317;49.048;8.468;2023-04-01T17:31:05;13.90;79.40
10538;DHT22;5317;49.048;8.468;2023-04-01T17:33:51;13.90;79.10
10538;DHT22;5317;49.048;8.468;2023-04-01T17:36:41;14.00;79.40
10538;DHT22;5317;49.048;8.468;2023-04-01T17:42:20;14.20;78.90
10538;DHT22;5317;49.048;8.468;2023-04-01T17:44:58;14.20;79.10
10538;DHT22;5317;49.048;8.468;2023-04-01T17:47:43;14.30;78.90
10538;DHT22;5317;49.048;8.468;2023-04-01T17:50:21;14.30;78.90
10538;DHT22;5317;49.048;8.468;2023-04-01T17:53:07;14.30;78.80
10538;DHT22;5317;49.048;8.468;2023-04-01T17:58:29;14.30;79.10
10538;DHT22;5317;49.048;8.468;2023-04-01T18:01:08;14.30;78.80
10538;DHT22;5317;49.048;8.468;2023-04-01T18:04:11;14.30;78.90
10538;DHT22;5317;49.048;8.468;2023-04-01T18:06:56;14.30;78.90
10538;DHT22;5317;49.048;8.468;2023-04-01T18:09:32;14.30;79.40